sensor_id;sensor_type;location;lat;lon;timestamp;temperature;humidity
7700;DHT22;3892;47.794;19.126;2023-06-22T00:01:20;28.20;52.50
7700;DHT22;3892;47.794;19.126;2023-06-22T00:03:50;28.20;52.40
7700;DHT22;3892;47.794;19.126;2023-06-22T00:06:18;28.30;52.20
7700;DHT22;3892;47.794;19.126;2023-06-22T00:08:47;28.30;51.90
7700;DHT22;3892;47.794;19.126;2023-06-22T00:11:15;28.40;51.90
7700;DHT22;3892;47.794;19.126;2023-06-22T00:13:43;28.40;51.50
7700;DHT22;3892;47.794;19.126;2023-06-22T00:16:11;28.40;51.30
7700;DHT22;3892;47.794;19.126;2023-06-22T00:18:39;28.50;51.00
7700;DHT22;3892;47.794;19.126;2023-06-22T00:21:14;28.50;50.90
7700;DHT22;3892;47.794;19.126;2023-06-22T00:23:43;28.40;51.00
7700;DHT22;3892;47.794;19.126;2023-06-22T00:26:11;28.40;50.90
7700;DHT22;3892;47.794;19.126;2023-06-22T00:28:39;28.40;50.90
7700;DHT22;3892;47.794;19.126;2023-06-22T00:31:07;28.40;50.80
7700;DHT22;3892;47.794;19.126;2023-06-22T00:33:35;28.30;50.70
7700;DHT22;3892;47.794;19.126;2023-06-22T00:36:04;28.30;50.90
7700;DHT22;3892;47.794;19.126;2023-06-22T00:38:34;28.20;51.30
7700;DHT22;3892;47.794;19.126;2023-06-22T00:41:06;28.00;52.60
7700;DHT22;3892;47.794;19.126;2023-06-22T00:43:34;27.90;51.70
7700;DHT22;3892;47.794;19.126;2023-06-22T00:46:03;27.80;51.60
7700;DHT22;3892;47.794;19.126;2023-06-22T00:48:31;27.80;51.70
7700;DHT22;3892;47.794;19.126;2023-06-22T00:50:59;27.90;52.00
7700;DHT22;3892;47.794;19.126;2023-06-22T00:53:27;27.90;52.20
7700;DHT22;3892;47.794;19.126;2023-06-22T00:55:57;27.80;52.10
7700;DHT22;3892;47.794;19.126;2023-06-22T00:58:26;27.90;52.40
7700;DHT22;3892;47.794;19.126;2023-06-22T01:00:54;27.90;52.70
7700;DHT22;3892;47.794;19.126;2023-06-22T01:03:22;27.90;52.50
7700;DHT22;3892;47.794;19.126;2023-06-22T01:05:51;27.90;52.60
7700;DHT22;3892;47.794;19.126;2023-06-22T01:08:28;27.90;52.60
7700;DHT22;3892;47.794;19.126;2023-06-22T01:11:04;28.00;52.30
7700;DHT22;3892;47.794;19.126;2023-06-22T01:13:48;28.00;52.30
7700;DHT22;3892;47.794;19.126;2023-06-22T01:16:23;28.00;52.20
7700;DHT22;3892;47.794;19.126;2023-06-22T01:18:55;28.00;52.20
7700;DHT22;3892;47.794;19.126;2023-06-22T01:21:29;28.00;52.60
7700;DHT22;3892;47.794;19.126;2023-06-22T01:24:10;28.00;52.30
7700;DHT22;3892;47.794;19.126;2023-06-22T01:26:50;28.00;52.30
7700;DHT22;3892;47.794;19.126;2023-06-22T01:29:24;27.90;51.70
7700;DHT22;3892;47.794;19.126;2023-06-22T01:31:54;28.00;51.90
7700;DHT22;3892;47.794;19.126;2023-06-22T01:34:24;28.00;51.50
7700;DHT22;3892;47.794;19.126;2023-06-22T01:36:53;27.90;52.50
7700;DHT22;3892;47.794;19.126;2023-06-22T01:39:21;27.80;51.50
7700;DHT22;3892;47.794;19.126;2023-06-22T01:41:50;27.70;51.80
7700;DHT22;3892;47.794;19.126;2023-06-22T01:44:19;27.60;51.60
7700;DHT22;3892;47.794;19.126;2023-06-22T01:46:50;27.60;52.30
7700;DHT22;3892;47.794;19.126;2023-06-22T01:49:19;27.60;52.00
7700;DHT22;3892;47.794;19.126;2023-06-22T01:51:48;27.60;52.20
7700;DHT22;3892;47.794;19.126;2023-06-22T01:54:16;27.50;52.70
7700;DHT22;3892;47.794;19.126;2023-06-22T01:56:44;27.50;53.10
7700;DHT22;3892;47.794;19.126;2023-06-22T01:59:17;27.50;53.20
7700;DHT22;3892;47.794;19.126;2023-06-22T02:01:54;27.50;53.30
7700;DHT22;3892;47.794;19.126;2023-06-22T02:04:26;27.40;53.40
7700;DHT22;3892;47.794;19.126;2023-06-22T02:06:58;27.30;53.40
7700;DHT22;3892;47.794;19.126;2023-06-22T02:09:29;27.30;53.60
7700;DHT22;3892;47.794;19.126;2023-06-22T02:11:58;27.30;53.50
7700;DHT22;3892;47.794;19.126;2023-06-22T02:14:28;27.40;53.60
7700;DHT22;3892;47.794;19.126;2023-06-22T02:16:58;27.40;53.70
7700;DHT22;3892;47.794;19.126;2023-06-22T02:19:27;27.50;53.60
7700;DHT22;3892;47.794;19.126;2023-06-22T02:21:59;27.50;53.50
7700;DHT22;3892;47.794;19.126;2023-06-22T02:24:28;27.50;53.50
7700;DHT22;3892;47.794;19.126;2023-06-22T02:26:58;27.50;53.60
7700;DHT22;3892;47.794;19.126;2023-06-22T02:29:26;27.60;53.60
7700;DHT22;3892;47.794;19.126;2023-06-22T02:31:55;27.60;53.50
7700;DHT22;3892;47.794;19.126;2023-06-22T02:34:24;27.50;53.60
7700;DHT22;3892;47.794;19.126;2023-06-22T02:36:52;27.40;53.70
7700;DHT22;3892;47.794;19.126;2023-06-22T02:39:22;27.40;53.90
7700;DHT22;3892;47.794;19.126;2023-06-22T02:41:51;27.50;53.70
7700;DHT22;3892;47.794;19.126;2023-06-22T02:44:20;27.40;53.80
7700;DHT22;3892;47.794;19.126;2023-06-22T02:46:48;27.40;54.00
7700;DHT22;3892;47.794;19.126;2023-06-22T02:49:17;27.30;54.10
7700;DHT22;3892;47.794;19.126;2023-06-22T02:51:49;27.40;54.20
7700;DHT22;3892;47.794;19.126;2023-06-22T02:54:17;27.50;54.10
7700;DHT22;3892;47.794;19.126;2023-06-22T02:56:45;27.50;53.80
7700;DHT22;3892;47.794;19.126;2023-06-22T02:59:14;27.60;53.90
7700;DHT22;3892;47.794;19.126;2023-06-22T03:01:42;27.60;53.70
7700;DHT22;3892;47.794;19.126;2023-06-22T03:04:10;27.60;53.60
7700;DHT22;3892;47.794;19.126;2023-06-22T03:06:38;27.70;53.40
7700;DHT22;3892;47.794;19.126;2023-06-22T03:09:09;27.70;53.50
7700;DHT22;3892;47.794;19.126;2023-06-22T03:11:37;27.70;53.50
7700;DHT22;3892;47.794;19.126;2023-06-22T03:14:05;27.70;53.40
7700;DHT22;3892;47.794;19.126;2023-06-22T03:16:34;27.70;53.50
7700;DHT22;3892;47.794;19.126;2023-06-22T03:19:02;27.70;53.40
7700;DHT22;3892;47.794;19.126;2023-06-22T03:21:30;27.60;53.50
7700;DHT22;3892;47.794;19.126;2023-06-22T03:23:58;27.70;53.60
7700;DHT22;3892;47.794;19.126;2023-06-22T03:26:28;27.70;53.50
7700;DHT22;3892;47.794;19.126;2023-06-22T03:28:56;27.70;53.50
7700;DHT22;3892;47.794;19.126;2023-06-22T03:31:24;27.80;53.40
7700;DHT22;3892;47.794;19.126;2023-06-22T03:33:53;27.80;53.30
7700;DHT22;3892;47.794;19.126;2023-06-22T03:36:21;27.80;53.20
7700;DHT22;3892;47.794;19.126;2023-06-22T03:38:51;27.80;53.20
7700;DHT22;3892;47.794;19.126;2023-06-22T03:41:19;27.80;53.20
7700;DHT22;3892;47.794;19.126;2023-06-22T03:43:48;27.80;53.30
7700;DHT22;3892;47.794;19.126;2023-06-22T03:46:16;27.80;53.40
7700;DHT22;3892;47.794;19.126;2023-06-22T03:48:46;27.80;53.20
7700;DHT22;3892;47.794;19.126;2023-06-22T03:51:14;27.90;53.10
7700;DHT22;3892;47.794;19.126;2023-06-22T03:53:42;27.90;52.80
7700;DHT22;3892;47.794;19.126;2023-06-22T03:56:11;27.90;52.90
7700;DHT22;3892;47.794;19.126;2023-06-22T03:58:39;27.90;53.00
7700;DHT22;3892;47.794;19.126;2023-06-22T04:01:11;27.90;52.80
7700;DHT22;3892;47.794;19.126;2023-06-22T04:03:40;27.90;52.90
7700;DHT22;3892;47.794;19.126;2023-06-22T04:06:09;27.90;53.00
7700;DHT22;3892;47.794;19.126;2023-06-22T04:08:37;27.90;53.00
7700;DHT22;3892;47.794;19.126;2023-06-22T04:11:05;27.90;53.10
7700;DHT22;3892;47.794;19.126;2023-06-22T04:13:33;27.80;53.10
7700;DHT22;3892;47.794;19.126;2023-06-22T04:16:01;27.90;52.90
7700;DHT22;3892;47.794;19.126;2023-06-22T04:18:30;27.80;52.70
7700;DHT22;3892;47.794;19.126;2023-06-22T04:20:59;27.90;52.70
7700;DHT22;3892;47.794;19.126;2023-06-22T04:23:27;27.90;52.50
7700;DHT22;3892;47.794;19.126;2023-06-22T04:25:55;27.90;52.70
7700;DHT22;3892;47.794;19.126;2023-06-22T04:28:24;27.90;52.80
7700;DHT22;3892;47.794;19.126;2023-06-22T04:30:53;27.90;52.70
7700;DHT22;3892;47.794;19.126;2023-06-22T04:33:24;27.90;52.80
7700;DHT22;3892;47.794;19.126;2023-06-22T04:35:54;27.90;52.70
7700;DHT22;3892;47.794;19.126;2023-06-22T04:38:24;28.00;52.80
7700;DHT22;3892;47.794;19.126;2023-06-22T04:40:52;28.00;52.90
7700;DHT22;3892;47.794;19.126;2023-06-22T04:43:21;28.00;52.90
7700;DHT22;3892;47.794;19.126;2023-06-22T04:45:49;28.00;52.90
7700;DHT22;3892;47.794;19.126;2023-06-22T04:48:19;28.00;52.90
7700;DHT22;3892;47.794;19.126;2023-06-22T04:50:47;28.00;53.00
7700;DHT22;3892;47.794;19.126;2023-06-22T04:53:16;28.10;53.20
7700;DHT22;3892;47.794;19.126;2023-06-22T04:55:45;28.10;53.10
7700;DHT22;3892;47.794;19.126;2023-06-22T04:58:15;28.00;53.00
7700;DHT22;3892;47.794;19.126;2023-06-22T05:00:46;28.10;53.10
7700;DHT22;3892;47.794;19.126;2023-06-22T05:03:15;28.10;53.00
7700;DHT22;3892;47.794;19.126;2023-06-22T05:05:45;28.10;52.70
7700;DHT22;3892;47.794;19.126;2023-06-22T05:08:14;28.10;52.80
7700;DHT22;3892;47.794;19.126;2023-06-22T05:10:43;28.20;52.90
7700;DHT22;3892;47.794;19.126;2023-06-22T05:13:20;28.20;52.90
7700;DHT22;3892;47.794;19.126;2023-06-22T05:15:53;28.20;52.70
7700;DHT22;3892;47.794;19.126;2023-06-22T05:18:28;28.20;52.30
7700;DHT22;3892;47.794;19.126;2023-06-22T05:20:58;28.20;52.40
7700;DHT22;3892;47.794;19.126;2023-06-22T05:23:26;28.20;52.00
7700;DHT22;3892;47.794;19.126;2023-06-22T05:25:56;28.10;51.80
7700;DHT22;3892;47.794;19.126;2023-06-22T05:28:24;28.10;52.10
7700;DHT22;3892;47.794;19.126;2023-06-22T05:30:52;27.90;51.90
7700;DHT22;3892;47.794;19.126;2023-06-22T05:33:21;28.00;52.00
7700;DHT22;3892;47.794;19.126;2023-06-22T05:35:49;27.90;52.20
7700;DHT22;3892;47.794;19.126;2023-06-22T05:38:17;27.80;52.30
7700;DHT22;3892;47.794;19.126;2023-06-22T05:40:45;27.90;52.80
7700;DHT22;3892;47.794;19.126;2023-06-22T05:43:15;27.90;52.80
7700;DHT22;3892;47.794;19.126;2023-06-22T05:45:43;28.00;53.00
7700;DHT22;3892;47.794;19.126;2023-06-22T05:48:12;27.90;52.90
7700;DHT22;3892;47.794;19.126;2023-06-22T05:50:40;27.90;52.60
7700;DHT22;3892;47.794;19.126;2023-06-22T05:53:08;27.90;52.80
7700;DHT22;3892;47.794;19.126;2023-06-22T05:55:36;28.00;52.90
7700;DHT22;3892;47.794;19.126;2023-06-22T05:58:04;28.00;53.00
7700;DHT22;3892;47.794;19.126;2023-06-22T06:00:34;28.00;52.80
7700;DHT22;3892;47.794;19.126;2023-06-22T06:03:02;28.00;53.00
7700;DHT22;3892;47.794;19.126;2023-06-22T06:05:31;28.00;53.00
7700;DHT22;3892;47.794;19.126;2023-06-22T06:08:00;28.00;52.90
7700;DHT22;3892;47.794;19.126;2023-06-22T06:10:28;28.00;53.10
7700;DHT22;3892;47.794;19.126;2023-06-22T06:12:57;28.00;52.80
7700;DHT22;3892;47.794;19.126;2023-06-22T06:15:25;28.00;52.50
7700;DHT22;3892;47.794;19.126;2023-06-22T06:17:54;28.10;52.50
7700;DHT22;3892;47.794;19.126;2023-06-22T06:20:24;28.20;52.40
7700;DHT22;3892;47.794;19.126;2023-06-22T06:22:52;28.20;52.40
7700;DHT22;3892;47.794;19.126;2023-06-22T06:25:23;28.30;51.90
7700;DHT22;3892;47.794;19.126;2023-06-22T06:27:51;28.30;52.10
7700;DHT22;3892;47.794;19.126;2023-06-22T06:30:21;28.30;52.60
7700;DHT22;3892;47.794;19.126;2023-06-22T06:32:50;28.40;52.00
7700;DHT22;3892;47.794;19.126;2023-06-22T06:35:19;28.50;52.30
7700;DHT22;3892;47.794;19.126;2023-06-22T06:37:50;28.60;51.80
7700;DHT22;3892;47.794;19.126;2023-06-22T06:40:18;28.60;51.30
7700;DHT22;3892;47.794;19.126;2023-06-22T06:42:47;28.70;51.60
7700;DHT22;3892;47.794;19.126;2023-06-22T06:45:18;28.80;51.70
7700;DHT22;3892;47.794;19.126;2023-06-22T06:47:49;28.90;50.90
7700;DHT22;3892;47.794;19.126;2023-06-22T06:50:19;28.90;50.30
7700;DHT22;3892;47.794;19.126;2023-06-22T06:52:47;29.00;50.30
7700;DHT22;3892;47.794;19.126;2023-06-22T06:55:17;29.00;49.70
7700;DHT22;3892;47.794;19.126;2023-06-22T06:57:47;29.00;49.80
7700;DHT22;3892;47.794;19.126;2023-06-22T07:00:17;29.00;49.40
7700;DHT22;3892;47.794;19.126;2023-06-22T07:02:46;29.00;49.20
7700;DHT22;3892;47.794;19.126;2023-06-22T07:05:15;29.10;49.50
